sensor_id;sensor_type;location;lat;lon;timestamp;P1;durP1;ratioP1;P2;durP2;ratioP2
46282;SDS011;32017;43.700;11.820;2022-07-10T00:01:30;0.63;;;0.63;;
46282;SDS011;32017;43.700;11.820;2022-07-10T00:03:51;0.70;;;0.70;;
46282;SDS011;32017;43.700;11.820;2022-07-10T00:06:12;0.70;;;0.70;;
46282;SDS011;32017;43.700;11.820;2022-07-10T00:08:33;0.70;;;0.70;;
46282;SDS011;32017;43.700;11.820;2022-07-10T00:10:54;0.80;;;0.80;;
46282;SDS011;32017;43.700;11.820;2022-07-10T00:13:17;1.65;;;0.70;;
46282;SDS011;32017;43.700;11.820;2022-07-10T00:15:37;0.70;;;0.70;;
46282;SDS011;32017;43.700;11.820;2022-07-10T00:17:58;0.70;;;0.70;;
46282;SDS011;32017;43.700;11.820;2022-07-10T00:20:19;0.70;;;0.70;;
46282;SDS011;32017;43.700;11.820;2022-07-10T00:22:40;0.70;;;0.70;;
46282;SDS011;32017;43.700;11.820;2022-07-10T00:25:02;0.75;;;0.65;;
46282;SDS011;32017;43.700;11.820;2022-07-10T00:27:26;0.60;;;0.60;;
46282;SDS011;32017;43.700;11.820;2022-07-10T00:29:47;0.70;;;0.70;;
46282;SDS011;32017;43.700;11.820;2022-07-10T00:32:08;0.70;;;0.70;;
46282;SDS011;32017;43.700;11.820;2022-07-10T00:34:28;2.58;;;0.70;;
46282;SDS011;32017;43.700;11.820;2022-07-10T00:36:49;0.68;;;0.68;;
46282;SDS011;32017;43.700;11.820;2022-07-10T00:39:10;0.73;;;0.73;;
46282;SDS011;32017;43.700;11.820;2022-07-10T00:41:31;0.80;;;0.80;;
46282;SDS011;32017;43.700;11.820;2022-07-10T00:43:53;0.77;;;0.77;;
46282;SDS011;32017;43.700;11.820;2022-07-10T00:46:17;0.70;;;0.70;;
46282;SDS011;32017;43.700;11.820;2022-07-10T00:51:01;1.55;;;0.70;;
46282;SDS011;32017;43.700;11.820;2022-07-10T00:53:22;0.80;;;0.80;;
46282;SDS011;32017;43.700;11.820;2022-07-10T00:55:42;0.80;;;0.80;;
46282;SDS011;32017;43.700;11.820;2022-07-10T00:58:05;0.70;;;0.70;;
46282;SDS011;32017;43.700;11.820;2022-07-10T01:00:28;0.70;;;0.70;;
46282;SDS011;32017;43.700;11.820;2022-07-10T01:02:50;0.70;;;0.70;;
46282;SDS011;32017;43.700;11.820;2022-07-10T01:05:13;0.68;;;0.68;;
46282;SDS011;32017;43.700;11.820;2022-07-10T01:07:34;0.70;;;0.70;;
46282;SDS011;32017;43.700;11.820;2022-07-10T01:09:56;2.03;;;0.70;;
46282;SDS011;32017;43.700;11.820;2022-07-10T01:12:17;0.80;;;0.80;;
46282;SDS011;32017;43.700;11.820;2022-07-10T01:14:37;1.55;;;0.70;;
46282;SDS011;32017;43.700;11.820;2022-07-10T01:17:00;0.63;;;0.63;;
46282;SDS011;32017;43.700;11.820;2022-07-10T01:19:21;0.80;;;0.80;;
46282;SDS011;32017;43.700;11.820;2022-07-10T01:21:42;0.80;;;0.80;;
46282;SDS011;32017;43.700;11.820;2022-07-10T01:24:04;0.77;;;0.77;;
46282;SDS011;32017;43.700;11.820;2022-07-10T01:26:31;1.60;;;0.80;;
46282;SDS011;32017;43.700;11.820;2022-07-10T01:31:17;0.80;;;0.80;;
46282;SDS011;32017;43.700;11.820;2022-07-10T01:33:39;0.70;;;0.70;;
46282;SDS011;32017;43.700;11.820;2022-07-10T01:36:01;1.65;;;0.70;;
46282;SDS011;32017;43.700;11.820;2022-07-10T01:38:22;0.70;;;0.70;;
46282;SDS011;32017;43.700;11.820;2022-07-10T01:40:42;0.80;;;0.80;;
46282;SDS011;32017;43.700;11.820;2022-07-10T01:43:03;0.70;;;0.70;;
46282;SDS011;32017;43.700;11.820;2022-07-10T01:45:24;0.73;;;0.73;;
46282;SDS011;32017;43.700;11.820;2022-07-10T01:47:47;0.70;;;0.70;;
46282;SDS011;32017;43.700;11.820;2022-07-10T01:50:07;0.80;;;0.80;;
46282;SDS011;32017;43.700;11.820;2022-07-10T01:52:28;0.70;;;0.70;;
46282;SDS011;32017;43.700;11.820;2022-07-10T01:54:49;1.33;;;0.77;;
46282;SDS011;32017;43.700;11.820;2022-07-10T01:57:10;0.73;;;0.73;;
46282;SDS011;32017;43.700;11.820;2022-07-10T01:59:31;1.38;;;0.93;;
46282;SDS011;32017;43.700;11.820;2022-07-10T02:01:53;0.80;;;0.80;;
46282;SDS011;32017;43.700;11.820;2022-07-10T02:04:13;0.82;;;0.82;;
46282;SDS011;32017;43.700;11.820;2022-07-10T02:06:53;0.98;;;0.88;;
46282;SDS011;32017;43.700;11.820;2022-07-10T02:09:14;0.80;;;0.80;;
46282;SDS011;32017;43.700;11.820;2022-07-10T02:11:35;0.90;;;0.90;;
46282;SDS011;32017;43.700;11.820;2022-07-10T02:13:57;0.80;;;0.80;;
46282;SDS011;32017;43.700;11.820;2022-07-10T02:16:18;0.80;;;0.80;;
46282;SDS011;32017;43.700;11.820;2022-07-10T02:18:40;0.80;;;0.80;;
46282;SDS011;32017;43.700;11.820;2022-07-10T02:23:23;0.80;;;0.80;;
46282;SDS011;32017;43.700;11.820;2022-07-10T02:25:44;0.80;;;0.80;;
46282;SDS011;32017;43.700;11.820;2022-07-10T02:28:05;0.70;;;0.70;;
46282;SDS011;32017;43.700;11.820;2022-07-10T02:30:25;0.80;;;0.80;;
46282;SDS011;32017;43.700;11.820;2022-07-10T02:32:46;0.90;;;0.80;;
46282;SDS011;32017;43.700;11.820;2022-07-10T02:35:07;0.80;;;0.80;;
46282;SDS011;32017;43.700;11.820;2022-07-10T02:37:28;0.80;;;0.80;;
46282;SDS011;32017;43.700;11.820;2022-07-10T02:39:48;0.90;;;0.90;;
46282;SDS011;32017;43.700;11.820;2022-07-10T02:42:10;1.55;;;0.70;;
46282;SDS011;32017;43.700;11.820;2022-07-10T02:44:31;0.80;;;0.80;;
46282;SDS011;32017;43.700;11.820;2022-07-10T02:46:54;0.80;;;0.80;;
46282;SDS011;32017;43.700;11.820;2022-07-10T02:49:15;0.80;;;0.80;;
46282;SDS011;32017;43.700;11.820;2022-07-10T02:51:36;0.70;;;0.70;;
46282;SDS011;32017;43.700;11.820;2022-07-10T02:53:57;0.90;;;0.90;;
46282;SDS011;32017;43.700;11.820;2022-07-10T02:56:19;2.22;;;0.70;;
46282;SDS011;32017;43.700;11.820;2022-07-10T02:58:40;0.70;;;0.70;;
46282;SDS011;32017;43.700;11.820;2022-07-10T03:01:02;1.20;;;0.80;;
46282;SDS011;32017;43.700;11.820;2022-07-10T03:03:23;0.80;;;0.80;;
46282;SDS011;32017;43.700;11.820;2022-07-10T03:05:44;0.70;;;0.70;;
46282;SDS011;32017;43.700;11.820;2022-07-10T03:08:05;0.80;;;0.80;;
46282;SDS011;32017;43.700;11.820;2022-07-10T03:10:26;0.80;;;0.80;;
46282;SDS011;32017;43.700;11.820;2022-07-10T03:12:46;0.80;;;0.80;;
46282;SDS011;32017;43.700;11.820;2022-07-10T03:15:07;0.73;;;0.73;;
46282;SDS011;32017;43.700;11.820;2022-07-10T03:17:28;0.80;;;0.80;;
46282;SDS011;32017;43.700;11.820;2022-07-10T03:19:50;0.80;;;0.80;;
46282;SDS011;32017;43.700;11.820;2022-07-10T03:22:11;0.80;;;0.80;;
46282;SDS011;32017;43.700;11.820;2022-07-10T03:24:32;0.80;;;0.80;;
46282;SDS011;32017;43.700;11.820;2022-07-10T03:26:53;0.77;;;0.77;;
46282;SDS011;32017;43.700;11.820;2022-07-10T03:29:13;0.90;;;0.90;;
46282;SDS011;32017;43.700;11.820;2022-07-10T03:31:41;1.58;;;0.80;;
46282;SDS011;32017;43.700;11.820;2022-07-10T03:34:02;0.85;;;0.85;;
46282;SDS011;32017;43.700;11.820;2022-07-10T03:36:24;0.70;;;0.70;;
46282;SDS011;32017;43.700;11.820;2022-07-10T03:38:45;0.70;;;0.70;;
46282;SDS011;32017;43.700;11.820;2022-07-10T03:41:06;0.75;;;0.75;;
46282;SDS011;32017;43.700;11.820;2022-07-10T03:43:26;1.25;;;0.75;;
46282;SDS011;32017;43.700;11.820;2022-07-10T03:45:47;0.80;;;0.80;;
46282;SDS011;32017;43.700;11.820;2022-07-10T03:48:08;1.33;;;0.88;;
46282;SDS011;32017;43.700;11.820;2022-07-10T03:50:29;1.52;;;0.80;;
46282;SDS011;32017;43.700;11.820;2022-07-10T03:52:51;0.70;;;0.70;;
46282;SDS011;32017;43.700;11.820;2022-07-10T03:55:11;2.20;;;0.80;;
46282;SDS011;32017;43.700;11.820;2022-07-10T03:57:32;0.80;;;0.80;;
46282;SDS011;32017;43.700;11.820;2022-07-10T04:00:12;0.88;;;0.88;;
46282;SDS011;32017;43.700;11.820;2022-07-10T04:02:33;2.00;;;0.90;;
46282;SDS011;32017;43.700;11.820;2022-07-10T04:04:54;0.80;;;0.80;;
46282;SDS011;32017;43.700;11.820;2022-07-10T04:07:17;0.80;;;0.80;;
46282;SDS011;32017;43.700;11.820;2022-07-10T04:09:38;3.13;;;0.80;;
46282;SDS011;32017;43.700;11.820;2022-07-10T04:11:59;1.40;;;1.23;;
46282;SDS011;32017;43.700;11.820;2022-07-10T04:14:19;2.15;;;0.80;;
46282;SDS011;32017;43.700;11.820;2022-07-10T04:16:40;1.02;;;1.02;;
46282;SDS011;32017;43.700;11.820;2022-07-10T04:19:01;1.23;;;0.90;;
46282;SDS011;32017;43.700;11.820;2022-07-10T04:21:22;0.82;;;0.82;;
46282;SDS011;32017;43.700;11.820;2022-07-10T04:23:43;0.85;;;0.85;;
46282;SDS011;32017;43.700;11.820;2022-07-10T04:26:03;1.95;;;0.80;;
46282;SDS011;32017;43.700;11.820;2022-07-10T04:28:24;0.80;;;0.80;;
46282;SDS011;32017;43.700;11.820;2022-07-10T04:30:46;0.80;;;0.80;;
46282;SDS011;32017;43.700;11.820;2022-07-10T04:33:07;1.23;;;0.80;;
46282;SDS011;32017;43.700;11.820;2022-07-10T04:35:27;0.77;;;0.70;;
46282;SDS011;32017;43.700;11.820;2022-07-10T04:37:48;1.95;;;0.90;;
46282;SDS011;32017;43.700;11.820;2022-07-10T04:40:08;0.80;;;0.80;;
46282;SDS011;32017;43.700;11.820;2022-07-10T04:42:31;0.90;;;0.90;;
46282;SDS011;32017;43.700;11.820;2022-07-10T04:44:52;3.05;;;0.90;;
46282;SDS011;32017;43.700;11.820;2022-07-10T04:47:13;4.40;;;0.80;;
46282;SDS011;32017;43.700;11.820;2022-07-10T04:49:35;1.00;;;1.00;;
46282;SDS011;32017;43.700;11.820;2022-07-10T04:51:56;0.75;;;0.75;;
46282;SDS011;32017;43.700;11.820;2022-07-10T04:54:17;0.80;;;0.80;;
46282;SDS011;32017;43.700;11.820;2022-07-10T04:56:38;1.20;;;0.80;;
46282;SDS011;32017;43.700;11.820;2022-07-10T04:58:59;0.85;;;0.85;;
46282;SDS011;32017;43.700;11.820;2022-07-10T05:01:20;1.65;;;0.90;;
46282;SDS011;32017;43.700;11.820;2022-07-10T05:03:40;0.90;;;0.90;;
46282;SDS011;32017;43.700;11.820;2022-07-10T05:06:01;0.80;;;0.80;;
46282;SDS011;32017;43.700;11.820;2022-07-10T05:08:22;1.30;;;1.20;;
46282;SDS011;32017;43.700;11.820;2022-07-10T05:10:42;0.80;;;0.80;;
46282;SDS011;32017;43.700;11.820;2022-07-10T05:13:03;1.20;;;0.80;;
46282;SDS011;32017;43.700;11.820;2022-07-10T05:15:25;1.10;;;0.90;;
46282;SDS011;32017;43.700;11.820;2022-07-10T05:17:45;0.85;;;0.85;;
46282;SDS011;32017;43.700;11.820;2022-07-10T05:20:07;1.23;;;0.90;;
46282;SDS011;32017;43.700;11.820;2022-07-10T05:22:28;3.05;;;0.90;;
46282;SDS011;32017;43.700;11.820;2022-07-10T05:24:51;0.97;;;0.97;;
46282;SDS011;32017;43.700;11.820;2022-07-10T05:27:12;0.80;;;0.80;;
46282;SDS011;32017;43.700;11.820;2022-07-10T05:29:33;1.60;;;0.90;;
46282;SDS011;32017;43.700;11.820;2022-07-10T05:31:55;0.77;;;0.77;;
46282;SDS011;32017;43.700;11.820;2022-07-10T05:34:16;1.27;;;0.90;;
46282;SDS011;32017;43.700;11.820;2022-07-10T05:36:37;0.90;;;0.90;;
46282;SDS011;32017;43.700;11.820;2022-07-10T05:38:57;0.70;;;0.70;;
46282;SDS011;32017;43.700;11.820;2022-07-10T05:41:18;2.17;;;0.90;;
46282;SDS011;32017;43.700;11.820;2022-07-10T05:43:40;0.80;;;0.80;;
46282;SDS011;32017;43.700;11.820;2022-07-10T05:46:00;0.70;;;0.70;;
46282;SDS011;32017;43.700;11.820;2022-07-10T05:48:21;1.38;;;0.80;;
46282;SDS011;32017;43.700;11.820;2022-07-10T05:50:44;0.80;;;0.80;;
46282;SDS011;32017;43.700;11.820;2022-07-10T05:53:04;0.70;;;0.70;;
46282;SDS011;32017;43.700;11.820;2022-07-10T05:55:26;0.73;;;0.73;;
46282;SDS011;32017;43.700;11.820;2022-07-10T05:57:47;0.70;;;0.70;;
46282;SDS011;32017;43.700;11.820;2022-07-10T06:00:07;1.25;;;0.80;;
46282;SDS011;32017;43.700;11.820;2022-07-10T06:02:29;0.82;;;0.82;;
46282;SDS011;32017;43.700;11.820;2022-07-10T06:04:50;0.70;;;0.70;;
46282;SDS011;32017;43.700;11.820;2022-07-10T06:07:10;0.80;;;0.80;;
46282;SDS011;32017;43.700;11.820;2022-07-10T06:09:32;1.48;;;0.80;;
46282;SDS011;32017;43.700;11.820;2022-07-10T06:11:53;0.77;;;0.77;;
46282;SDS011;32017;43.700;11.820;2022-07-10T06:14:13;0.70;;;0.70;;
46282;SDS011;32017;43.700;11.820;2022-07-10T06:16:34;0.70;;;0.70;;
46282;SDS011;32017;43.700;11.820;2022-07-10T06:18:55;0.70;;;0.70;;
46282;SDS011;32017;43.700;11.820;2022-07-10T06:21:16;0.70;;;0.70;;
46282;SDS011;32017;43.700;11.820;2022-07-10T06:23:42;0.70;;;0.70;;
46282;SDS011;32017;43.700;11.820;2022-07-10T06:26:03;0.80;;;0.80;;
46282;SDS011;32017;43.700;11.820;2022-07-10T06:28:24;0.95;;;0.70;;
46282;SDS011;32017;43.700;11.820;2022-07-10T06:30:44;0.70;;;0.70;;
46282;SDS011;32017;43.700;11.820;2022-07-10T06:33:08;0.70;;;0.70;;
46282;SDS011;32017;43.700;11.820;2022-07-10T06:35:29;0.70;;;0.70;;
46282;SDS011;32017;43.700;11.820;2022-07-10T06:37:50;0.70;;;0.70;;
46282;SDS011;32017;43.700;11.820;2022-07-10T06:40:12;0.60;;;0.60;;
46282;SDS011;32017;43.700;11.820;2022-07-10T06:42:37;0.70;;;0.70;;
46282;SDS011;32017;43.700;11.820;2022-07-10T06:45:03;1.10;;;1.10;;
46282;SDS011;32017;43.700;11.820;2022-07-10T06:47:25;0.70;;;0.70;;
46282;SDS011;32017;43.700;11.820;2022-07-10T06:50:05;0.93;;;0.65;;
46282;SDS011;32017;43.700;11.820;2022-07-10T06:52:26;0.70;;;0.70;;
46282;SDS011;32017;43.700;11.820;2022-07-10T06:54:47;0.60;;;0.60;;
46282;SDS011;32017;43.700;11.820;2022-07-10T06:57:09;0.70;;;0.70;;
46282;SDS011;32017;43.700;11.820;2022-07-10T06:59:30;0.60;;;0.60;;
46282;SDS011;32017;43.700;11.820;2022-07-10T07:01:51;0.60;;;0.60;;
46282;SDS011;32017;43.700;11.820;2022-07-10T07:04:14;0.70;;;0.70;;
46282;SDS011;32017;43.700;11.820;2022-07-10T07:06:37;0.60;;;0.60;;
46282;SDS011;32017;43.700;11.820;2022-07-10T07:08:59;0.75;;;0.70;;
46282;SDS011;32017;43.700;11.820;2022-07-10T07:11:19;0.70;;;0.70;;
46282;SDS011;32017;43.700;11.820;2022-07-10T07:13:40;0.60;;;0.60;;
46282;SDS011;32017;43.700;11.820;2022-07-10T07:16:01;0.65;;;0.65;;
46282;SDS011;32017;43.700;11.820;2022-07-10T07:18:27;2.67;;;0.60;;
46282;SDS011;32017;43.700;11.820;2022-07-10T07:20:55;0.50;;;0.50;;
46282;SDS011;32017;43.700;11.820;2022-07-10T07:23:34;1.38;;;0.52;;
46282;SDS011;32017;43.700;11.820;2022-07-10T07:25:55;1.58;;;0.50;;
46282;SDS011;32017;43.700;11.820;2022-07-10T07:28:17;0.60;;;0.60;;
46282;SDS011;32017;43.700;11.820;2022-07-10T07:30:39;0.50;;;0.50;;
46282;SDS011;32017;43.700;11.820;2022-07-10T07:32:59;0.57;;;0.50;;
46282;SDS011;32017;43.700;11.820;2022-07-10T07:35:20;0.50;;;0.50;;
46282;SDS011;32017;43.700;11.820;2022-07-10T07:37:42;0.50;;;0.50;;
46282;SDS011;32017;43.700;11.820;2022-07-10T07:40:06;0.45;;;0.45;;
46282;SDS011;32017;43.700;11.820;2022-07-10T07:45:13;1.55;;;0.40;;
46282;SDS011;32017;43.700;11.820;2022-07-10T07:47:48;0.55;;;0.40;;
46282;SDS011;32017;43.700;11.820;2022-07-10T07:50:12;0.40;;;0.40;;
46282;SDS011;32017;43.700;11.820;2022-07-10T07:52:42;0.75;;;0.47;;
46282;SDS011;32017;43.700;11.820;2022-07-10T07:57:55;0.40;;;0.40;;
46282;SDS011;32017;43.700;11.820;2022-07-10T08:00:17;0.40;;;0.40;;
46282;SDS011;32017;43.700;11.820;2022-07-10T08:02:38;1.25;;;0.40;;
46282;SDS011;32017;43.700;11.820;2022-07-10T08:04:59;0.32;;;0.32;;
46282;SDS011;32017;43.700;11.820;2022-07-10T08:07:20;0.40;;;0.40;;
46282;SDS011;32017;43.700;11.820;2022-07-10T08:09:41;0.30;;;0.30;;
46282;SDS011;32017;43.700;11.820;2022-07-10T08:12:04;0.35;;;0.35;;
46282;SDS011;32017;43.700;11.820;2022-07-10T08:14:25;0.30;;;0.30;;
46282;SDS011;32017;43.700;11.820;2022-07-10T08:19:35;0.40;;;0.40;;
46282;SDS011;32017;43.700;11.820;2022-07-10T08:21:57;0.35;;;0.35;;
46282;SDS011;32017;43.700;11.820;2022-07-10T08:24:18;0.30;;;0.30;;
46282;SDS011;32017;43.700;11.820;2022-07-10T08:26:39;0.30;;;0.30;;
46282;SDS011;32017;43.700;11.820;2022-07-10T08:29:01;0.20;;;0.20;;
46282;SDS011;32017;43.700;11.820;2022-07-10T08:31:22;0.20;;;0.20;;
46282;SDS011;32017;43.700;11.820;2022-07-10T08:33:45;0.30;;;0.30;;
46282;SDS011;32017;43.700;11.820;2022-07-10T08:36:06;0.20;;;0.20;;
46282;SDS011;32017;43.700;11.820;2022-07-10T08:38:48;0.63;;;0.20;;
46282;SDS011;32017;43.700;11.820;2022-07-10T08:41:09;0.30;;;0.30;;
46282;SDS011;32017;43.700;11.820;2022-07-10T08:43:32;0.20;;;0.20;;
46282;SDS011;32017;43.700;11.820;2022-07-10T08:45:53;0.20;;;0.20;;
46282;SDS011;32017;43.700;11.820;2022-07-10T08:48:14;0.20;;;0.20;;
46282;SDS011;32017;43.700;11.820;2022-07-10T08:50:42;0.30;;;0.30;;
46282;SDS011;32017;43.700;11.820;2022-07-10T08:55:28;0.20;;;0.20;;
46282;SDS011;32017;43.700;11.820;2022-07-10T08:57:49;0.20;;;0.20;;
46282;SDS011;32017;43.700;11.820;2022-07-10T09:02:34;0.80;;;0.22;;
46282;SDS011;32017;43.700;11.820;2022-07-10T09:04:54;0.20;;;0.20;;
46282;SDS011;32017;43.700;11.820;2022-07-10T09:07:16;0.20;;;0.20;;
46282;SDS011;32017;43.700;11.820;2022-07-10T09:09:59;0.20;;;0.20;;
46282;SDS011;32017;43.700;11.820;2022-07-10T09:12:18;0.73;;;0.20;;
46282;SDS011;32017;43.700;11.820;2022-07-10T09:14:40;0.20;;;0.20;;
46282;SDS011;32017;43.700;11.820;2022-07-10T09:17:01;0.20;;;0.20;;
46282;SDS011;32017;43.700;11.820;2022-07-10T09:19:27;1.30;;;0.30;;
46282;SDS011;32017;43.700;11.820;2022-07-10T09:21:51;0.20;;;0.20;;
46282;SDS011;32017;43.700;11.820;2022-07-10T09:24:13;0.20;;;0.20;;
46282;SDS011;32017;43.700;11.820;2022-07-10T09:26:37;1.23;;;0.20;;
46282;SDS011;32017;43.700;11.820;2022-07-10T09:31:47;0.20;;;0.20;;
46282;SDS011;32017;43.700;11.820;2022-07-10T09:34:09;0.20;;;0.20;;
46282;SDS011;32017;43.700;11.820;2022-07-10T09:36:31;0.95;;;0.20;;
46282;SDS011;32017;43.700;11.820;2022-07-10T09:38:57;0.20;;;0.20;;
46282;SDS011;32017;43.700;11.820;2022-07-10T09:41:21;0.90;;;0.20;;
46282;SDS011;32017;43.700;11.820;2022-07-10T09:46:09;0.20;;;0.20;;
46282;SDS011;32017;43.700;11.820;2022-07-10T09:48:29;0.20;;;0.20;;
46282;SDS011;32017;43.700;11.820;2022-07-10T09:50:51;0.35;;;0.20;;
46282;SDS011;32017;43.700;11.820;2022-07-10T09:53:13;0.20;;;0.20;;
46282;SDS011;32017;43.700;11.820;2022-07-10T10:00:19;0.20;;;0.20;;
46282;SDS011;32017;43.700;11.820;2022-07-10T10:02:54;0.20;;;0.20;;
46282;SDS011;32017;43.700;11.820;2022-07-10T10:05:20;0.20;;;0.20;;
46282;SDS011;32017;43.700;11.820;2022-07-10T10:07:47;0.20;;;0.20;;
46282;SDS011;32017;43.700;11.820;2022-07-10T10:10:08;0.20;;;0.20;;
46282;SDS011;32017;43.700;11.820;2022-07-10T10:12:39;0.20;;;0.20;;
46282;SDS011;32017;43.700;11.820;2022-07-10T10:15:10;0.20;;;0.20;;
46282;SDS011;32017;43.700;11.820;2022-07-10T10:17:37;0.20;;;0.20;;
46282;SDS011;32017;43.700;11.820;2022-07-10T10:20:04;0.20;;;0.20;;
46282;SDS011;32017;43.700;11.820;2022-07-10T10:52:14;0.20;;;0.20;;
46282;SDS011;32017;43.700;11.820;2022-07-10T10:57:17;0.20;;;0.20;;
46282;SDS011;32017;43.700;11.820;2022-07-10T10:59:54;0.17;;;0.17;;
46282;SDS011;32017;43.700;11.820;2022-07-10T11:02:21;0.20;;;0.20;;
46282;SDS011;32017;43.700;11.820;2022-07-10T11:04:44;0.10;;;0.10;;
46282;SDS011;32017;43.700;11.820;2022-07-10T11:15:46;0.10;;;0.10;;
46282;SDS011;32017;43.700;11.820;2022-07-10T11:18:12;0.20;;;0.20;;
46282;SDS011;32017;43.700;11.820;2022-07-10T11:20:35;0.17;;;0.17;;
46282;SDS011;32017;43.700;11.820;2022-07-10T11:25:45;0.10;;;0.10;;
46282;SDS011;32017;43.700;11.820;2022-07-10T11:28:22;0.13;;;0.13;;
46282;SDS011;32017;43.700;11.820;2022-07-10T11:33:41;0.20;;;0.20;;
46282;SDS011;32017;43.700;11.820;2022-07-10T11:39:04;0.10;;;0.10;;
46282;SDS011;32017;43.700;11.820;2022-07-10T11:41:26;0.10;;;0.10;;
46282;SDS011;32017;43.700;11.820;2022-07-10T11:43:49;0.10;;;0.10;;
46282;SDS011;32017;43.700;11.820;2022-07-10T11:46:12;0.10;;;0.10;;
46282;SDS011;32017;43.700;11.820;2022-07-10T11:48:37;0.10;;;0.10;;
46282;SDS011;32017;43.700;11.820;2022-07-10T11:51:00;0.10;;;0.10;;
46282;SDS011;32017;43.700;11.820;2022-07-10T11:53:24;0.30;;;0.10;;
46282;SDS011;32017;43.700;11.820;2022-07-10T11:55:45;0.22;;;0.20;;
46282;SDS011;32017;43.700;11.820;2022-07-10T12:00:34;0.10;;;0.10;;
46282;SDS011;32017;43.700;11.820;2022-07-10T12:02:55;0.10;;;0.10;;
46282;SDS011;32017;43.700;11.820;2022-07-10T12:16:34;0.10;;;0.10;;
46282;SDS011;32017;43.700;11.820;2022-07-10T12:18:56;0.10;;;0.10;;
46282;SDS011;32017;43.700;11.820;2022-07-10T12:21:17;0.10;;;0.10;;
46282;SDS011;32017;43.700;11.820;2022-07-10T12:23:38;0.15;;;0.10;;
46282;SDS011;32017;43.700;11.820;2022-07-10T12:26:01;0.10;;;0.10;;
46282;SDS011;32017;43.700;11.820;2022-07-10T12:28:23;0.20;;;0.20;;
46282;SDS011;32017;43.700;11.820;2022-07-10T12:30:45;0.10;;;0.10;;
46282;SDS011;32017;43.700;11.820;2022-07-10T12:33:18;0.10;;;0.10;;
46282;SDS011;32017;43.700;11.820;2022-07-10T12:38:14;0.10;;;0.10;;
46282;SDS011;32017;43.700;11.820;2022-07-10T12:40:36;0.10;;;0.10;;
46282;SDS011;32017;43.700;11.820;2022-07-10T12:43:03;1.63;;;0.20;;
46282;SDS011;32017;43.700;11.820;2022-07-10T12:45:26;0.10;;;0.10;;
46282;SDS011;32017;43.700;11.820;2022-07-10T12:47:47;0.10;;;0.10;;
46282;SDS011;32017;43.700;11.820;2022-07-10T12:50:08;0.10;;;0.10;;
46282;SDS011;32017;43.700;11.820;2022-07-10T12:52:33;0.20;;;0.20;;
46282;SDS011;32017;43.700;11.820;2022-07-10T12:55:12;0.20;;;0.20;;
46282;SDS011;32017;43.700;11.820;2022-07-10T13:00:14;0.20;;;0.20;;
46282;SDS011;32017;43.700;11.820;2022-07-10T13:02:36;0.10;;;0.10;;
46282;SDS011;32017;43.700;11.820;2022-07-10T13:04:57;0.20;;;0.20;;
46282;SDS011;32017;43.700;11.820;2022-07-10T13:07:18;0.20;;;0.20;;
46282;SDS011;32017;43.700;11.820;2022-07-10T13:09:41;0.98;;;0.10;;
46282;SDS011;32017;43.700;11.820;2022-07-10T13:12:04;0.10;;;0.10;;
46282;SDS011;32017;43.700;11.820;2022-07-10T13:14:25;1.77;;;0.10;;
46282;SDS011;32017;43.700;11.820;2022-07-10T13:16:46;0.10;;;0.10;;
46282;SDS011;32017;43.700;11.820;2022-07-10T13:19:07;0.10;;;0.10;;
46282;SDS011;32017;43.700;11.820;2022-07-10T13:21:28;0.10;;;0.10;;
46282;SDS011;32017;43.700;11.820;2022-07-10T13:23:49;0.40;;;0.10;;
46282;SDS011;32017;43.700;11.820;2022-07-10T13:26:10;0.35;;;0.20;;
46282;SDS011;32017;43.700;11.820;2022-07-10T13:28:31;0.10;;;0.10;;
46282;SDS011;32017;43.700;11.820;2022-07-10T13:30:52;0.10;;;0.10;;
46282;SDS011;32017;43.700;11.820;2022-07-10T13:33:13;0.17;;;0.10;;
46282;SDS011;32017;43.700;11.820;2022-07-10T13:35:34;0.10;;;0.10;;
46282;SDS011;32017;43.700;11.820;2022-07-10T13:37:56;0.20;;;0.20;;
46282;SDS011;32017;43.700;11.820;2022-07-10T13:40:20;2.95;;;0.20;;
46282;SDS011;32017;43.700;11.820;2022-07-10T13:42:41;0.13;;;0.13;;
46282;SDS011;32017;43.700;11.820;2022-07-10T13:45:01;0.20;;;0.20;;
46282;SDS011;32017;43.700;11.820;2022-07-10T13:47:22;0.20;;;0.20;;
46282;SDS011;32017;43.700;11.820;2022-07-10T13:49:43;0.10;;;0.10;;
46282;SDS011;32017;43.700;11.820;2022-07-10T13:52:04;0.10;;;0.10;;
46282;SDS011;32017;43.700;11.820;2022-07-10T13:54:24;0.13;;;0.10;;
46282;SDS011;32017;43.700;11.820;2022-07-10T13:56:45;1.65;;;0.20;;
46282;SDS011;32017;43.700;11.820;2022-07-10T13:59:05;0.20;;;0.20;;
46282;SDS011;32017;43.700;11.820;2022-07-10T14:01:26;0.22;;;0.20;;
46282;SDS011;32017;43.700;11.820;2022-07-10T14:03:47;0.10;;;0.10;;
46282;SDS011;32017;43.700;11.820;2022-07-10T14:06:08;0.10;;;0.10;;
46282;SDS011;32017;43.700;11.820;2022-07-10T14:08:29;0.10;;;0.10;;
46282;SDS011;32017;43.700;11.820;2022-07-10T14:10:50;0.15;;;0.15;;
46282;SDS011;32017;43.700;11.820;2022-07-10T14:13:11;0.10;;;0.10;;
46282;SDS011;32017;43.700;11.820;2022-07-10T14:15:32;0.10;;;0.10;;
46282;SDS011;32017;43.700;11.820;2022-07-10T14:17:52;0.10;;;0.10;;
46282;SDS011;32017;43.700;11.820;2022-07-10T14:22:35;0.13;;;0.13;;
46282;SDS011;32017;43.700;11.820;2022-07-10T14:24:56;1.33;;;0.10;;
46282;SDS011;32017;43.700;11.820;2022-07-10T14:27:18;0.10;;;0.10;;
46282;SDS011;32017;43.700;11.820;2022-07-10T14:29:38;0.10;;;0.10;;
46282;SDS011;32017;43.700;11.820;2022-07-10T14:31:59;0.20;;;0.20;;
46282;SDS011;32017;43.700;11.820;2022-07-10T14:34:19;0.10;;;0.10;;
46282;SDS011;32017;43.700;11.820;2022-07-10T14:36:44;0.20;;;0.20;;
46282;SDS011;32017;43.700;11.820;2022-07-10T14:39:11;0.20;;;0.20;;
46282;SDS011;32017;43.700;11.820;2022-07-10T14:41:32;0.30;;;0.10;;
46282;SDS011;32017;43.700;11.820;2022-07-10T14:43:53;0.20;;;0.20;;
46282;SDS011;32017;43.700;11.820;2022-07-10T14:46:13;0.10;;;0.10;;
46282;SDS011;32017;43.700;11.820;2022-07-10T14:48:34;0.10;;;0.10;;
46282;SDS011;32017;43.700;11.820;2022-07-10T14:50:56;0.13;;;0.13;;
46282;SDS011;32017;43.700;11.820;2022-07-10T14:53:19;0.20;;;0.20;;
46282;SDS011;32017;43.700;11.820;2022-07-10T14:55:40;0.20;;;0.20;;
46282;SDS011;32017;43.700;11.820;2022-07-10T14:58:01;0.17;;;0.17;;
46282;SDS011;32017;43.700;11.820;2022-07-10T15:00:22;0.20;;;0.20;;
46282;SDS011;32017;43.700;11.820;2022-07-10T15:02:43;0.10;;;0.10;;
46282;SDS011;32017;43.700;11.820;2022-07-10T15:05:04;0.10;;;0.10;;
46282;SDS011;32017;43.700;11.820;2022-07-10T15:07:25;0.10;;;0.10;;
46282;SDS011;32017;43.700;11.820;2022-07-10T15:09:45;0.10;;;0.10;;
46282;SDS011;32017;43.700;11.820;2022-07-10T15:12:06;0.10;;;0.10;;
46282;SDS011;32017;43.700;11.820;2022-07-10T15:14:27;1.02;;;0.10;;
46282;SDS011;32017;43.700;11.820;2022-07-10T15:16:49;0.10;;;0.10;;
46282;SDS011;32017;43.700;11.820;2022-07-10T15:19:10;0.10;;;0.10;;
46282;SDS011;32017;43.700;11.820;2022-07-10T15:21:31;0.13;;;0.13;;
46282;SDS011;32017;43.700;11.820;2022-07-10T15:23:51;0.10;;;0.10;;
46282;SDS011;32017;43.700;11.820;2022-07-10T15:26:12;0.10;;;0.10;;
46282;SDS011;32017;43.700;11.820;2022-07-10T15:28:33;1.35;;;0.20;;
46282;SDS011;32017;43.700;11.820;2022-07-10T15:30:53;0.20;;;0.20;;
46282;SDS011;32017;43.700;11.820;2022-07-10T15:33:14;0.10;;;0.10;;
46282;SDS011;32017;43.700;11.820;2022-07-10T15:35:35;0.20;;;0.15;;
46282;SDS011;32017;43.700;11.820;2022-07-10T15:37:55;0.10;;;0.10;;
46282;SDS011;32017;43.700;11.820;2022-07-10T15:40:18;0.20;;;0.20;;
46282;SDS011;32017;43.700;11.820;2022-07-10T15:42:39;0.20;;;0.20;;
46282;SDS011;32017;43.700;11.820;2022-07-10T15:45:00;0.20;;;0.20;;